Time;durP1;ratioP1;P1;durP2;ratioP2;P2;SDS_P1;SDS_P2;PMS_P1;PMS_P2;Temp;Humidity;BMP_temperature;BMP_pressure;BME280_temperature;BME280_humidity;BME280_pressure;Samples;Min_cycle;Max_cycle;Signal;HPM_P1;HPM_P2
2022/10/27 00:01:59;;;;;;;1.80;0.60;;;;;;;;;;4999030;28;20100;-66
2022/10/27 00:04:25;;;;;;;0.52;0.40;;;;;;;;;;4992032;28;20053;-66
2022/10/27 00:06:51;;;;;;;0.82;0.60;;;;;;;;;;4992762;28;20069;-66
2022/10/27 00:09:16;;;;;;;0.75;0.47;;;;;;;;;;5011850;28;20526;-66
2022/10/27 00:11:42;;;;;;;0.70;0.40;;;;;;;;;;5000391;28;20041;-66
2022/10/27 00:14:09;;;;;;;0.95;0.43;;;;;;;;;;5006078;28;20051;-66
2022/10/27 00:16:35;;;;;;;1.10;0.60;;;;;;;;;;5011713;28;20081;-66
2022/10/27 00:19:02;;;;;;;0.55;0.55;;;;;;;;;;5014090;28;20487;-66
2022/10/27 00:21:28;;;;;;;0.77;0.50;;;;;;;;;;5014099;28;20128;-66
2022/10/27 00:23:54;;;;;;;1.38;0.40;;;;;;;;;;5011054;28;20400;-66
2022/10/27 00:26:20;;;;;;;0.70;0.47;;;;;;;;;;5013934;28;20053;-66
2022/10/27 00:28:47;;;;;;;0.65;0.30;;;;;;;;;;5015774;28;20046;-66
2022/10/27 00:31:15;;;;;;;0.95;0.55;;;;;;;;;;5017446;28;20062;-66
2022/10/27 00:33:41;;;;;;;0.77;0.22;;;;;;;;;;5012554;28;20045;-66
2022/10/27 00:36:08;;;;;;;0.82;0.25;;;;;;;;;;5012937;28;20045;-66
2022/10/27 00:38:35;;;;;;;0.60;0.60;;;;;;;;;;5011472;28;20038;-66
2022/10/27 00:41:01;;;;;;;0.77;0.55;;;;;;;;;;4997431;28;20056;-66
2022/10/27 00:43:29;;;;;;;0.75;0.30;;;;;;;;;;4998465;28;20049;-66
2022/10/27 00:45:57;;;;;;;0.90;0.60;;;;;;;;;;4996871;28;20045;-66
2022/10/27 00:48:23;;;;;;;0.35;0.35;;;;;;;;;;4997969;28;20054;-66
2022/10/27 00:50:49;;;;;;;1.67;0.30;;;;;;;;;;5016680;28;20077;-66
2022/10/27 00:53:15;;;;;;;1.88;0.40;;;;;;;;;;5015917;28;20204;-66
2022/10/27 00:55:41;;;;;;;0.28;0.28;;;;;;;;;;5016327;28;20412;-64
2022/10/27 00:58:09;;;;;;;0.35;0.35;;;;;;;;;;5010548;28;20452;-64
2022/10/27 01:00:36;;;;;;;0.30;0.25;;;;;;;;;;5011601;28;20448;-66
2022/10/27 01:03:02;;;;;;;2.97;0.63;;;;;;;;;;5016953;28;20061;-66
2022/10/27 01:05:28;;;;;;;0.70;0.38;;;;;;;;;;4996977;28;20049;-66
2022/10/27 01:07:56;;;;;;;0.95;0.60;;;;;;;;;;5000403;28;20103;-66
2022/10/27 01:10:22;;;;;;;0.43;0.43;;;;;;;;;;5015819;28;20362;-66
2022/10/27 01:12:49;;;;;;;0.75;0.65;;;;;;;;;;5016662;28;20046;-67
2022/10/27 01:15:15;;;;;;;1.23;0.40;;;;;;;;;;5014495;28;20045;-66
2022/10/27 01:17:44;;;;;;;0.40;0.40;;;;;;;;;;5014620;28;20540;-66
2022/10/27 01:20:28;;;;;;;0.40;0.38;;;;;;;;;;5014873;28;20042;-66
2022/10/27 01:23:14;;;;;;;0.65;0.65;;;;;;;;;;5012417;28;20046;-66
2022/10/27 01:25:40;;;;;;;0.93;0.68;;;;;;;;;;5013763;28;20543;-66
2022/10/27 01:28:25;;;;;;;0.65;0.40;;;;;;;;;;4995216;28;20085;-66
2022/10/27 01:31:04;;;;;;;1.17;0.60;;;;;;;;;;5013428;28;20045;-66
2022/10/27 01:33:36;;;;;;;0.60;0.50;;;;;;;;;;4993850;28;20060;-65
2022/10/27 01:36:20;;;;;;;0.60;0.60;;;;;;;;;;4999666;28;20468;-66
2022/10/27 01:38:48;;;;;;;1.55;0.52;;;;;;;;;;5014419;28;20049;-65
2022/10/27 01:41:20;;;;;;;1.60;0.70;;;;;;;;;;4998428;28;20125;-65
2022/10/27 01:43:47;;;;;;;0.60;0.60;;;;;;;;;;5017367;28;20376;-65
2022/10/27 01:46:14;;;;;;;0.82;0.60;;;;;;;;;;5011794;28;20340;-65
2022/10/27 01:48:40;;;;;;;0.80;0.55;;;;;;;;;;4999599;28;20045;-65
2022/10/27 01:51:07;;;;;;;1.23;1.05;;;;;;;;;;4996028;28;20467;-65
2022/10/27 01:53:35;;;;;;;1.40;1.00;;;;;;;;;;5000236;28;20257;-65
2022/10/27 01:56:01;;;;;;;1.77;1.23;;;;;;;;;;4995766;28;20362;-65
2022/10/27 01:58:30;;;;;;;0.90;0.80;;;;;;;;;;5016045;28;20420;-65
2022/10/27 02:01:04;;;;;;;1.95;1.75;;;;;;;;;;4999163;28;20050;-65
2022/10/27 02:03:34;;;;;;;1.40;1.10;;;;;;;;;;5013682;28;20070;-65
2022/10/27 02:06:07;;;;;;;1.20;1.10;;;;;;;;;;5013577;28;20050;-65
2022/10/27 02:08:42;;;;;;;1.30;1.20;;;;;;;;;;4992533;28;20042;-65
2022/10/27 02:11:09;;;;;;;1.40;1.33;;;;;;;;;;5008089;28;20493;-65
2022/10/27 02:13:37;;;;;;;3.05;1.40;;;;;;;;;;4993909;28;20431;-65
2022/10/27 02:16:04;;;;;;;1.50;1.10;;;;;;;;;;5018223;28;20060;-66
2022/10/27 02:18:32;;;;;;;1.45;1.35;;;;;;;;;;5009260;28;20124;-65
2022/10/27 02:21:03;;;;;;;2.63;1.42;;;;;;;;;;4998860;28;20045;-65
2022/10/27 02:23:29;;;;;;;1.65;1.50;;;;;;;;;;4996102;28;20104;-65
2022/10/27 02:25:58;;;;;;;2.10;1.10;;;;;;;;;;4995799;28;20099;-66
2022/10/27 02:28:37;;;;;;;1.20;1.10;;;;;;;;;;5013386;28;20489;-65
2022/10/27 02:31:03;;;;;;;1.25;1.15;;;;;;;;;;5015835;28;20483;-65
2022/10/27 02:33:29;;;;;;;1.42;0.90;;;;;;;;;;4997362;28;20083;-65
2022/10/27 02:35:56;;;;;;;1.10;1.00;;;;;;;;;;5013477;28;20073;-65
2022/10/27 02:38:22;;;;;;;1.17;1.00;;;;;;;;;;4994548;28;20050;-65
2022/10/27 02:40:48;;;;;;;0.85;0.80;;;;;;;;;;5009936;28;20044;-65
2022/10/27 02:43:14;;;;;;;0.68;0.68;;;;;;;;;;5017233;28;20055;-65
2022/10/27 02:45:40;;;;;;;0.77;0.77;;;;;;;;;;4993749;28;20136;-65
2022/10/27 02:48:06;;;;;;;0.70;0.60;;;;;;;;;;5013705;28;20052;-65
2022/10/27 02:50:32;;;;;;;1.02;0.93;;;;;;;;;;5015002;28;20037;-65
2022/10/27 02:52:58;;;;;;;1.02;0.90;;;;;;;;;;5014403;28;20124;-65
2022/10/27 02:55:24;;;;;;;1.33;0.98;;;;;;;;;;5000871;28;20163;-65
2022/10/27 02:57:50;;;;;;;1.13;1.02;;;;;;;;;;5007448;28;20048;-65
2022/10/27 03:00:16;;;;;;;1.05;0.95;;;;;;;;;;4995253;28;20056;-65
2022/10/27 03:02:42;;;;;;;1.13;0.93;;;;;;;;;;4997896;28;20052;-65
2022/10/27 03:05:08;;;;;;;1.55;1.10;;;;;;;;;;5013173;28;20160;-65
2022/10/27 03:07:34;;;;;;;1.40;1.30;;;;;;;;;;4997368;28;20041;-65
2022/10/27 03:10:00;;;;;;;1.80;1.67;;;;;;;;;;5010254;28;20080;-65
2022/10/27 03:12:26;;;;;;;1.88;1.75;;;;;;;;;;4996344;28;20050;-65
2022/10/27 03:14:52;;;;;;;1.67;1.33;;;;;;;;;;4996590;28;20107;-65
2022/10/27 03:17:18;;;;;;;1.50;1.33;;;;;;;;;;5014462;28;20042;-65
2022/10/27 03:19:44;;;;;;;3.15;1.30;;;;;;;;;;5008539;28;20530;-65
2022/10/27 03:22:10;;;;;;;1.15;1.02;;;;;;;;;;5012713;28;20053;-65
2022/10/27 03:24:36;;;;;;;0.95;0.90;;;;;;;;;;5012399;28;20041;-65
2022/10/27 03:27:02;;;;;;;1.70;1.05;;;;;;;;;;5010156;28;20048;-65
2022/10/27 03:29:28;;;;;;;1.15;1.05;;;;;;;;;;5010831;28;20041;-65
2022/10/27 03:31:54;;;;;;;1.33;1.02;;;;;;;;;;4993457;28;20123;-65
2022/10/27 03:34:20;;;;;;;1.25;1.00;;;;;;;;;;4993856;28;20041;-65
2022/10/27 03:36:46;;;;;;;1.40;0.95;;;;;;;;;;5013762;28;20049;-65
2022/10/27 03:39:12;;;;;;;0.75;0.75;;;;;;;;;;4991326;28;20546;-65
2022/10/27 03:41:38;;;;;;;0.68;0.52;;;;;;;;;;5016797;28;20076;-65
2022/10/27 03:44:04;;;;;;;0.85;0.70;;;;;;;;;;4995725;28;20057;-65
2022/10/27 03:46:30;;;;;;;0.73;0.73;;;;;;;;;;4995189;28;20151;-65
2022/10/27 03:48:56;;;;;;;0.50;0.50;;;;;;;;;;4992110;28;20096;-65
2022/10/27 03:51:22;;;;;;;0.50;0.50;;;;;;;;;;4995142;28;20048;-65
2022/10/27 03:53:48;;;;;;;0.73;0.60;;;;;;;;;;5010805;28;20046;-65
2022/10/27 03:56:14;;;;;;;0.63;0.50;;;;;;;;;;5010128;28;20170;-65
2022/10/27 03:58:40;;;;;;;0.40;0.40;;;;;;;;;;4996769;28;20103;-65
2022/10/27 04:01:06;;;;;;;1.33;0.65;;;;;;;;;;5012806;28;20053;-65
2022/10/27 04:03:32;;;;;;;0.85;0.60;;;;;;;;;;5012035;28;20405;-65
2022/10/27 04:05:58;;;;;;;1.05;0.95;;;;;;;;;;5022263;28;20033;-66
2022/10/27 04:08:24;;;;;;;0.57;0.57;;;;;;;;;;4998892;28;20100;-65
2022/10/27 04:10:50;;;;;;;1.15;0.90;;;;;;;;;;5005502;28;20052;-65
2022/10/27 04:13:16;;;;;;;0.90;0.80;;;;;;;;;;5016262;28;20585;-65
2022/10/27 04:15:42;;;;;;;1.33;0.63;;;;;;;;;;5015929;28;20143;-65
2022/10/27 04:18:09;;;;;;;3.13;1.05;;;;;;;;;;4998347;28;20041;-65
2022/10/27 04:20:35;;;;;;;0.80;0.80;;;;;;;;;;5001528;28;20041;-65
2022/10/27 04:23:01;;;;;;;0.80;0.70;;;;;;;;;;4996735;28;20057;-65
2022/10/27 04:25:27;;;;;;;0.95;0.57;;;;;;;;;;5011909;28;20045;-65
2022/10/27 04:28:06;;;;;;;0.60;0.60;;;;;;;;;;5014314;28;20052;-65
2022/10/27 04:30:33;;;;;;;0.80;0.80;;;;;;;;;;4994562;28;20127;-65
2022/10/27 04:32:59;;;;;;;0.60;0.55;;;;;;;;;;5016095;28;20439;-65
2022/10/27 04:35:25;;;;;;;1.27;0.80;;;;;;;;;;4996452;28;20056;-65
2022/10/27 04:37:51;;;;;;;1.15;1.00;;;;;;;;;;4999019;28;20042;-65
2022/10/27 04:40:17;;;;;;;0.93;0.85;;;;;;;;;;5017379;28;20052;-65
2022/10/27 04:42:46;;;;;;;0.75;0.75;;;;;;;;;;5014811;28;20038;-65
2022/10/27 04:45:13;;;;;;;0.80;0.80;;;;;;;;;;4994662;28;20050;-65
2022/10/27 04:47:39;;;;;;;1.30;1.02;;;;;;;;;;4998432;28;20060;-65
2022/10/27 04:50:05;;;;;;;1.02;0.93;;;;;;;;;;4994088;28;20497;-65
2022/10/27 04:52:31;;;;;;;0.80;0.80;;;;;;;;;;4997381;28;20045;-65
2022/10/27 04:54:57;;;;;;;1.08;0.93;;;;;;;;;;4996850;28;20049;-65
2022/10/27 04:57:23;;;;;;;1.27;1.17;;;;;;;;;;5015672;28;20037;-65
2022/10/27 04:59:49;;;;;;;0.90;0.90;;;;;;;;;;4993810;28;20133;-65
2022/10/27 05:02:15;;;;;;;1.88;1.10;;;;;;;;;;4991043;28;20189;-65
2022/10/27 05:04:41;;;;;;;4.20;1.48;;;;;;;;;;5014422;28;20052;-65
2022/10/27 05:07:07;;;;;;;1.25;1.10;;;;;;;;;;5011116;28;20048;-65
2022/10/27 05:09:33;;;;;;;1.40;1.30;;;;;;;;;;4990037;28;20046;-65
2022/10/27 05:11:59;;;;;;;1.58;1.38;;;;;;;;;;4997081;28;20052;-65
2022/10/27 05:14:25;;;;;;;1.58;1.48;;;;;;;;;;5000489;28;20050;-65
2022/10/27 05:16:51;;;;;;;1.52;1.40;;;;;;;;;;5001250;28;20062;-65
2022/10/27 05:19:17;;;;;;;1.42;1.15;;;;;;;;;;5012365;28;20129;-65
2022/10/27 05:21:43;;;;;;;1.40;1.13;;;;;;;;;;4997424;28;20381;-65
2022/10/27 05:24:09;;;;;;;1.67;1.20;;;;;;;;;;5012445;28;20042;-65
2022/10/27 05:26:35;;;;;;;2.13;1.52;;;;;;;;;;5013101;28;20044;-65
2022/10/27 05:29:01;;;;;;;1.77;1.23;;;;;;;;;;4995714;28;20136;-65
2022/10/27 05:31:27;;;;;;;4.32;2.55;;;;;;;;;;4995721;28;20140;-65
2022/10/27 05:33:53;;;;;;;2.20;1.90;;;;;;;;;;4994591;28;20076;-65
2022/10/27 05:36:19;;;;;;;1.90;1.63;;;;;;;;;;4994010;28;20117;-65
2022/10/27 05:38:46;;;;;;;1.15;1.10;;;;;;;;;;5017227;28;20064;-65
2022/10/27 05:41:12;;;;;;;1.52;1.42;;;;;;;;;;5018092;28;20060;-65
2022/10/27 05:43:40;;;;;;;1.33;1.23;;;;;;;;;;4999496;28;20060;-65
2022/10/27 05:46:06;;;;;;;2.20;1.30;;;;;;;;;;5011301;28;20060;-65
2022/10/27 05:48:32;;;;;;;3.00;2.10;;;;;;;;;;4997440;28;20707;-65
2022/10/27 05:50:58;;;;;;;1.85;1.75;;;;;;;;;;4997134;28;20042;-65
2022/10/27 05:53:24;;;;;;;1.75;1.65;;;;;;;;;;4990138;28;20056;-65
2022/10/27 05:55:53;;;;;;;1.70;1.60;;;;;;;;;;4993164;28;20254;-65
2022/10/27 05:58:20;;;;;;;1.73;1.63;;;;;;;;;;4990719;28;20049;-65
2022/10/27 06:00:46;;;;;;;1.25;1.15;;;;;;;;;;4996665;28;20046;-65
2022/10/27 06:03:20;;;;;;;2.20;2.00;;;;;;;;;;5015870;28;20046;-65
2022/10/27 06:05:46;;;;;;;2.50;2.10;;;;;;;;;;4994504;28;20048;-65
2022/10/27 06:08:13;;;;;;;2.10;1.85;;;;;;;;;;4986943;28;20386;-65
2022/10/27 06:10:39;;;;;;;1.30;1.20;;;;;;;;;;5000424;28;20476;-65
2022/10/27 06:13:05;;;;;;;1.67;1.35;;;;;;;;;;4997447;28;20527;-65
2022/10/27 06:15:32;;;;;;;1.55;1.30;;;;;;;;;;4992730;28;20277;-65
2022/10/27 06:17:58;;;;;;;1.58;1.48;;;;;;;;;;4999471;28;20050;-64
2022/10/27 06:20:24;;;;;;;2.38;1.70;;;;;;;;;;4995094;28;20073;-64
2022/10/27 06:22:51;;;;;;;1.55;1.45;;;;;;;;;;4990288;28;20575;-64
2022/10/27 06:25:17;;;;;;;1.75;1.65;;;;;;;;;;4989028;28;20507;-62
2022/10/27 06:27:43;;;;;;;1.60;1.50;;;;;;;;;;4982564;28;20612;-62
2022/10/27 06:30:09;;;;;;;1.63;1.52;;;;;;;;;;4993095;28;20053;-65
2022/10/27 06:32:39;;;;;;;3.17;2.45;;;;;;;;;;4995263;28;20053;-64
2022/10/27 06:35:05;;;;;;;3.60;1.98;;;;;;;;;;5003495;28;20085;-65
2022/10/27 06:37:31;;;;;;;3.35;2.00;;;;;;;;;;4993311;28;20481;-65
2022/10/27 06:39:57;;;;;;;1.92;1.73;;;;;;;;;;5014200;28;20482;-65
2022/10/27 06:42:23;;;;;;;2.30;2.10;;;;;;;;;;4994992;28;20044;-65
2022/10/27 06:44:49;;;;;;;1.75;1.63;;;;;;;;;;5022585;28;20049;-65
2022/10/27 06:47:15;;;;;;;2.47;1.90;;;;;;;;;;5006626;28;20076;-65
2022/10/27 06:49:41;;;;;;;2.30;1.55;;;;;;;;;;4994378;28;20049;-65
2022/10/27 06:52:08;;;;;;;1.15;1.10;;;;;;;;;;5009955;28;20123;-65
2022/10/27 06:54:33;;;;;;;0.80;0.80;;;;;;;;;;5015374;28;20046;-65
2022/10/27 06:56:59;;;;;;;1.25;1.00;;;;;;;;;;4994399;28;20420;-66
2022/10/27 06:59:25;;;;;;;1.20;1.10;;;;;;;;;;5013921;28;20054;-65
2022/10/27 07:01:51;;;;;;;1.63;1.52;;;;;;;;;;4992845;28;20068;-65
2022/10/27 07:04:17;;;;;;;1.05;1.05;;;;;;;;;;5009179;28;20053;-65
2022/10/27 07:06:43;;;;;;;1.90;1.38;;;;;;;;;;4991067;28;20038;-65
2022/10/27 07:09:10;;;;;;;1.83;1.23;;;;;;;;;;5012947;28;20518;-65
2022/10/27 07:11:36;;;;;;;1.80;1.70;;;;;;;;;;5009085;28;20125;-65
2022/10/27 07:14:02;;;;;;;2.00;1.90;;;;;;;;;;4993951;28;20057;-65
2022/10/27 07:16:28;;;;;;;1.50;1.40;;;;;;;;;;4993321;28;20045;-65
2022/10/27 07:18:54;;;;;;;1.67;1.40;;;;;;;;;;4995710;28;20517;-65
2022/10/27 07:21:20;;;;;;;1.30;1.20;;;;;;;;;;4982602;28;20044;-65
2022/10/27 07:23:46;;;;;;;2.00;1.88;;;;;;;;;;5005691;28;20048;-66
2022/10/27 07:26:12;;;;;;;1.83;1.73;;;;;;;;;;5007387;28;20478;-66
2022/10/27 07:28:38;;;;;;;1.98;1.73;;;;;;;;;;5012318;28;20055;-65
2022/10/27 07:31:04;;;;;;;1.60;1.50;;;;;;;;;;4997213;28;20057;-65
2022/10/27 07:33:30;;;;;;;2.67;1.00;;;;;;;;;;4989002;28;20196;-65
2022/10/27 07:35:56;;;;;;;2.67;1.38;;;;;;;;;;4989031;28;20448;-65
2022/10/27 07:38:22;;;;;;;1.52;1.27;;;;;;;;;;5007423;28;20045;-65
2022/10/27 07:40:49;;;;;;;1.25;1.00;;;;;;;;;;4997058;28;20042;-65
2022/10/27 07:43:15;;;;;;;1.63;1.40;;;;;;;;;;4984467;28;20428;-65
2022/10/27 07:45:42;;;;;;;2.00;1.80;;;;;;;;;;4981733;28;20431;-65
2022/10/27 07:48:12;;;;;;;1.20;1.10;;;;;;;;;;4987291;28;20504;-65
2022/10/27 07:50:38;;;;;;;1.20;1.10;;;;;;;;;;5004938;28;20147;-64
2022/10/27 07:53:04;;;;;;;1.45;1.35;;;;;;;;;;5000085;28;20123;-64
2022/10/27 07:55:32;;;;;;;1.83;1.73;;;;;;;;;;4978750;28;20521;-64
2022/10/27 07:57:59;;;;;;;3.25;1.60;;;;;;;;;;5000640;28;20128;-64
2022/10/27 08:00:25;;;;;;;1.60;1.50;;;;;;;;;;4999165;28;20054;-64
2022/10/27 08:02:51;;;;;;;2.05;1.85;;;;;;;;;;4998279;28;20034;-64
2022/10/27 08:05:17;;;;;;;1.35;1.25;;;;;;;;;;4978682;28;20099;-64
2022/10/27 08:07:43;;;;;;;1.45;1.35;;;;;;;;;;4986680;28;20389;-64
2022/10/27 08:10:09;;;;;;;1.88;1.35;;;;;;;;;;4993828;28;20049;-64
2022/10/27 08:12:40;;;;;;;1.15;1.05;;;;;;;;;;5014687;28;20042;-64
2022/10/27 08:15:07;;;;;;;1.15;1.05;;;;;;;;;;4989156;28;20046;-64
2022/10/27 08:17:33;;;;;;;1.45;1.35;;;;;;;;;;5005647;28;20100;-64
2022/10/27 08:19:59;;;;;;;2.03;1.90;;;;;;;;;;5013974;28;20496;-64
2022/10/27 08:22:25;;;;;;;2.63;1.85;;;;;;;;;;5003639;28;20042;-64
2022/10/27 08:24:51;;;;;;;4.35;2.10;;;;;;;;;;4999563;28;20400;-65
2022/10/27 08:27:17;;;;;;;1.90;1.80;;;;;;;;;;4986664;28;20057;-65
2022/10/27 08:29:43;;;;;;;3.60;2.67;;;;;;;;;;4989958;28;20477;-65
2022/10/27 08:32:09;;;;;;;4.70;2.22;;;;;;;;;;4993824;28;20038;-64
2022/10/27 08:34:35;;;;;;;2.15;1.85;;;;;;;;;;5003653;28;20057;-64
2022/10/27 08:37:01;;;;;;;3.42;2.45;;;;;;;;;;4998605;28;20200;-65
2022/10/27 08:39:27;;;;;;;2.80;2.00;;;;;;;;;;4995760;28;20052;-64
2022/10/27 08:41:53;;;;;;;1.88;1.77;;;;;;;;;;4983915;28;20052;-64
2022/10/27 08:44:19;;;;;;;1.70;1.60;;;;;;;;;;4998765;28;20331;-64
2022/10/27 08:46:45;;;;;;;1.60;1.48;;;;;;;;;;4990338;28;20042;-64
2022/10/27 08:49:18;;;;;;;1.42;1.33;;;;;;;;;;4982294;28;20065;-64
2022/10/27 08:51:46;;;;;;;1.90;1.80;;;;;;;;;;4999603;28;20050;-64
2022/10/27 08:54:12;;;;;;;1.95;1.80;;;;;;;;;;5006211;28;20375;-65
2022/10/27 08:56:40;;;;;;;2.28;1.73;;;;;;;;;;5019079;28;20484;-64
2022/10/27 08:59:13;;;;;;;3.65;2.15;;;;;;;;;;5004842;28;20057;-64
2022/10/27 09:01:39;;;;;;;3.42;2.63;;;;;;;;;;5008300;28;20615;-64
2022/10/27 09:04:23;;;;;;;2.30;2.10;;;;;;;;;;5015450;28;20107;-64
2022/10/27 09:07:08;;;;;;;2.67;2.03;;;;;;;;;;4986909;28;20046;-64
2022/10/27 09:09:40;;;;;;;5.65;3.60;;;;;;;;;;4999343;28;20042;-64
2022/10/27 09:12:09;;;;;;;;;;;;;;;;;;5000737;28;20049;-64
2022/10/27 09:14:45;;;;;;;3.22;2.47;;;;;;;;;;4997909;28;19964;-64
2022/10/27 09:17:14;;;;;;;3.35;2.40;;;;;;;;;;4979921;28;20050;-64
2022/10/27 09:19:43;;;;;;;3.90;2.30;;;;;;;;;;4994015;28;20141;-64
2022/10/27 09:22:13;;;;;;;4.15;2.10;;;;;;;;;;5004698;28;20053;-64
2022/10/27 09:24:39;;;;;;;3.05;1.98;;;;;;;;;;4993628;28;20488;-64
2022/10/27 09:27:05;;;;;;;2.70;2.10;;;;;;;;;;4986812;28;20112;-65
2022/10/27 09:29:35;;;;;;;3.75;2.17;;;;;;;;;;4986079;28;20053;-65
2022/10/27 09:32:36;;;;;;;1.70;1.60;;;;;;;;;;5005666;28;20523;-64
2022/10/27 09:35:10;;;;;;;1.73;1.63;;;;;;;;;;4964823;28;20643;-64
2022/10/27 09:37:39;;;;;;;1.67;1.42;;;;;;;;;;4981837;28;20061;-64
2022/10/27 09:40:10;;;;;;;1.60;1.45;;;;;;;;;;5000814;28;20489;-65
2022/10/27 09:42:36;;;;;;;1.90;1.60;;;;;;;;;;5009512;28;20045;-65
2022/10/27 09:45:02;;;;;;;1.77;1.58;;;;;;;;;;5008519;28;20416;-66
2022/10/27 09:47:31;;;;;;;1.73;1.63;;;;;;;;;;5027098;28;20492;-64
2022/10/27 09:49:57;;;;;;;5.07;1.65;;;;;;;;;;5004181;28;20480;-65
2022/10/27 09:52:27;;;;;;;2.20;1.90;;;;;;;;;;5027358;28;20527;-66
2022/10/27 09:54:54;;;;;;;3.22;2.08;;;;;;;;;;5002293;28;20038;-65
2022/10/27 09:57:23;;;;;;;2.45;2.17;;;;;;;;;;5001124;28;20042;-63
2022/10/27 10:00:13;;;;;;;3.55;2.53;;;;;;;;;;4983277;28;20065;-64
2022/10/27 10:02:41;;;;;;;3.28;2.13;;;;;;;;;;4989212;28;20134;-63
2022/10/27 10:05:21;;;;;;;5.05;2.38;;;;;;;;;;5002430;28;20050;-63
2022/10/27 10:07:47;;;;;;;2.10;1.67;;;;;;;;;;5003312;28;20045;-63
2022/10/27 10:10:19;;;;;;;2.00;1.50;;;;;;;;;;4980644;28;20061;-63
2022/10/27 10:12:45;;;;;;;2.40;1.58;;;;;;;;;;4977335;28;20048;-63
2022/10/27 10:15:11;;;;;;;2.92;2.03;;;;;;;;;;4982571;28;20429;-65
2022/10/27 10:17:39;;;;;;;2.35;1.77;;;;;;;;;;4982262;28;20480;-63
2022/10/27 10:20:06;;;;;;;2.15;1.10;;;;;;;;;;4995903;28;20133;-63
2022/10/27 10:22:33;;;;;;;2.25;1.73;;;;;;;;;;4977884;28;20109;-63
2022/10/27 10:25:04;;;;;;;3.40;2.20;;;;;;;;;;4982124;28;20046;-63
2022/10/27 10:27:31;;;;;;;2.05;1.52;;;;;;;;;;5001277;28;20394;-63
2022/10/27 10:29:59;;;;;;;3.65;1.88;;;;;;;;;;5012043;28;20115;-62
2022/10/27 10:32:26;;;;;;;3.42;1.88;;;;;;;;;;4990601;28;20408;-62
2022/10/27 10:34:52;;;;;;;2.22;1.60;;;;;;;;;;5012826;28;20041;-65
2022/10/27 10:37:32;;;;;;;2.78;1.77;;;;;;;;;;5014146;28;20548;-65
2022/10/27 10:40:13;;;;;;;4.28;2.20;;;;;;;;;;5006679;28;20042;-65
2022/10/27 10:42:47;;;;;;;3.97;1.65;;;;;;;;;;5005062;28;20096;-65
2022/10/27 10:45:17;;;;;;;3.17;1.50;;;;;;;;;;4983873;28;20129;-65
2022/10/27 10:47:46;;;;;;;1.55;1.45;;;;;;;;;;5007514;28;20154;-65
2022/10/27 10:50:13;;;;;;;4.07;1.67;;;;;;;;;;4987688;28;20169;-64
2022/10/27 10:52:39;;;;;;;1.90;1.27;;;;;;;;;;4996491;28;20041;-63
2022/10/27 10:55:06;;;;;;;3.35;1.80;;;;;;;;;;5008829;28;20081;-64
2022/10/27 10:57:38;;;;;;;1.27;1.17;;;;;;;;;;4986558;28;20045;-64
2022/10/27 11:00:05;;;;;;;2.13;1.50;;;;;;;;;;4984493;28;20128;-63
2022/10/27 11:02:32;;;;;;;1.60;1.33;;;;;;;;;;5007283;28;20261;-64
2022/10/27 11:05:09;;;;;;;2.08;1.33;;;;;;;;;;4998121;28;20030;-64
2022/10/27 11:07:36;;;;;;;3.15;1.33;;;;;;;;;;5001788;28;20114;-63
2022/10/27 11:10:14;;;;;;;1.17;1.08;;;;;;;;;;4981104;28;20046;-64
2022/10/27 11:12:43;;;;;;;1.25;1.15;;;;;;;;;;4987849;28;20124;-63
2022/10/27 11:15:28;;;;;;;2.00;1.10;;;;;;;;;;4991852;28;20053;-63
2022/10/27 11:17:57;;;;;;;2.78;1.20;;;;;;;;;;4983003;28;20058;-63
2022/10/27 11:20:29;;;;;;;1.55;1.10;;;;;;;;;;5001927;28;20105;-64
2022/10/27 11:22:55;;;;;;;1.48;1.10;;;;;;;;;;4987369;28;20081;-63
2022/10/27 11:25:23;;;;;;;1.13;0.98;;;;;;;;;;4987212;28;20444;-64
2022/10/27 11:27:59;;;;;;;4.53;1.63;;;;;;;;;;5003578;28;20251;-63
2022/10/27 11:30:26;;;;;;;2.90;1.25;;;;;;;;;;4974784;28;20053;-66
2022/10/27 11:33:11;;;;;;;1.50;1.02;;;;;;;;;;4983316;28;20049;-64
2022/10/27 11:35:38;;;;;;;3.20;1.48;;;;;;;;;;5000625;28;20500;-64
2022/10/27 11:38:21;;;;;;;2.35;1.30;;;;;;;;;;4986986;28;20062;-64
2022/10/27 11:40:53;;;;;;;1.35;1.10;;;;;;;;;;4987846;28;20511;-64
2022/10/27 11:43:19;;;;;;;;;;;;;;;;;;4987647;28;20046;-64
2022/10/27 11:46:05;;;;;;;4.43;1.38;;;;;;;;;;4986447;28;19932;-64
2022/10/27 11:48:42;;;;;;;1.67;0.98;;;;;;;;;;5006521;28;20148;-64
2022/10/27 11:51:13;;;;;;;1.42;0.70;;;;;;;;;;5006869;28;20053;-64
2022/10/27 11:53:39;;;;;;;1.63;1.10;;;;;;;;;;4988723;28;20203;-64
2022/10/27 11:56:19;;;;;;;1.52;1.00;;;;;;;;;;4988854;28;20144;-64
2022/10/27 11:59:06;;;;;;;2.20;0.80;;;;;;;;;;5006476;28;20050;-65
2022/10/27 12:01:51;;;;;;;2.78;0.90;;;;;;;;;;4987966;28;20080;-64
2022/10/27 12:04:17;;;;;;;1.38;0.70;;;;;;;;;;4988581;28;20045;-64
2022/10/27 12:06:47;;;;;;;1.60;1.08;;;;;;;;;;4988133;28;20870;-64
2022/10/27 12:09:19;;;;;;;1.48;0.93;;;;;;;;;;4988623;28;20064;-64
2022/10/27 12:11:45;;;;;;;;;;;;;;;;;;4988967;28;20124;-64
2022/10/27 12:14:16;;;;;;;2.40;1.00;;;;;;;;;;4988649;28;19922;-64
2022/10/27 12:16:52;;;;;;;1.70;0.90;;;;;;;;;;4989090;28;20061;-64
2022/10/27 12:19:21;;;;;;;1.50;0.80;;;;;;;;;;4987872;28;20050;-64
2022/10/27 12:22:00;;;;;;;1.77;0.77;;;;;;;;;;5004874;28;20042;-64
2022/10/27 12:24:39;;;;;;;1.83;0.80;;;;;;;;;;5009357;28;20042;-64
2022/10/27 12:27:10;;;;;;;0.93;0.50;;;;;;;;;;4991914;28;20062;-64
2022/10/27 12:29:42;;;;;;;1.60;0.60;;;;;;;;;;5000642;28;20077;-64
2022/10/27 12:32:13;;;;;;;1.58;0.50;;;;;;;;;;4992524;28;20336;-64
2022/10/27 12:34:42;;;;;;;1.55;0.73;;;;;;;;;;5009272;28;20046;-64
2022/10/27 12:37:08;;;;;;;3.30;0.45;;;;;;;;;;4992464;28;20050;-64
2022/10/27 12:39:40;;;;;;;0.82;0.60;;;;;;;;;;4991592;28;20052;-64
2022/10/27 12:42:13;;;;;;;1.60;0.68;;;;;;;;;;4991501;28;20481;-64
2022/10/27 12:44:49;;;;;;;2.08;0.73;;;;;;;;;;4989562;28;20049;-64
2022/10/27 12:47:24;;;;;;;1.45;0.73;;;;;;;;;;4991903;28;20057;-64
2022/10/27 12:50:01;;;;;;;3.00;0.60;;;;;;;;;;4991042;28;20045;-64
2022/10/27 12:52:28;;;;;;;1.08;0.50;;;;;;;;;;5008304;28;20030;-64
2022/10/27 12:55:00;;;;;;;0.98;0.57;;;;;;;;;;5009465;28;20038;-64
2022/10/27 12:57:36;;;;;;;0.95;0.68;;;;;;;;;;4990706;28;20086;-64
2022/10/27 13:00:09;;;;;;;0.80;0.68;;;;;;;;;;4990937;28;20428;-64
2022/10/27 13:02:41;;;;;;;0.82;0.50;;;;;;;;;;5009360;28;20045;-64
2022/10/27 13:05:07;;;;;;;;;;;;;;;;;;4992779;28;20092;-64
2022/10/27 13:07:40;;;;;;;3.13;0.77;;;;;;;;;;4991130;28;19925;-64
2022/10/27 13:10:25;;;;;;;1.67;0.70;;;;;;;;;;5008312;28;20485;-64
2022/10/27 13:12:50;;;;;;;1.00;0.57;;;;;;;;;;4991817;28;20054;-64
2022/10/27 13:15:35;;;;;;;1.27;0.70;;;;;;;;;;5008936;28;20038;-64
2022/10/27 13:18:24;;;;;;;5.22;0.85;;;;;;;;;;5007863;28;21488;-64
2022/10/27 13:21:09;;;;;;;2.15;0.75;;;;;;;;;;4995967;28;20046;-64
2022/10/27 13:23:44;;;;;;;2.78;0.90;;;;;;;;;;4990770;28;20046;-64
2022/10/27 13:26:17;;;;;;;1.48;0.65;;;;;;;;;;5009394;28;20045;-64
2022/10/27 13:28:55;;;;;;;0.77;0.60;;;;;;;;;;4991221;28;20069;-64
2022/10/27 13:31:23;;;;;;;0.63;0.60;;;;;;;;;;4990203;28;20049;-64
2022/10/27 13:34:02;;;;;;;2.70;0.75;;;;;;;;;;4990434;28;20104;-64
2022/10/27 13:36:28;;;;;;;0.82;0.50;;;;;;;;;;4990473;28;20108;-64
2022/10/27 13:39:13;;;;;;;2.67;0.50;;;;;;;;;;5007632;28;20129;-64
2022/10/27 13:41:58;;;;;;;1.65;0.85;;;;;;;;;;4991858;28;20048;-64
2022/10/27 13:44:25;;;;;;;2.05;0.50;;;;;;;;;;5008703;28;20100;-64
2022/10/27 13:47:04;;;;;;;1.02;0.68;;;;;;;;;;5007365;28;20042;-64
2022/10/27 13:49:39;;;;;;;0.90;0.50;;;;;;;;;;4988187;28;20050;-64
2022/10/27 13:52:14;;;;;;;3.03;0.70;;;;;;;;;;4999510;28;20050;-64
2022/10/27 13:54:54;;;;;;;1.15;0.70;;;;;;;;;;5005537;28;20057;-64
2022/10/27 13:57:35;;;;;;;1.15;0.82;;;;;;;;;;4989746;28;20073;-64
2022/10/27 14:00:06;;;;;;;1.55;0.88;;;;;;;;;;4996425;28;20055;-64
2022/10/27 14:02:44;;;;;;;1.02;0.75;;;;;;;;;;4997166;28;20501;-63
2022/10/27 14:05:19;;;;;;;0.77;0.50;;;;;;;;;;5006742;28;20583;-63
2022/10/27 14:07:45;;;;;;;2.25;1.25;;;;;;;;;;4997564;28;20492;-63
2022/10/27 14:10:13;;;;;;;1.52;0.60;;;;;;;;;;4985940;28;20524;-63
2022/10/27 14:12:39;;;;;;;0.65;0.50;;;;;;;;;;5001346;28;20041;-64
2022/10/27 14:15:06;;;;;;;1.05;0.60;;;;;;;;;;4988296;28;20053;-64
2022/10/27 14:17:32;;;;;;;1.20;0.68;;;;;;;;;;4979887;28;20752;-63
2022/10/27 14:19:58;;;;;;;0.90;0.68;;;;;;;;;;4992387;28;20078;-63
2022/10/27 14:22:27;;;;;;;3.63;1.10;;;;;;;;;;4973407;28;20137;-63
2022/10/27 14:24:57;;;;;;;0.75;0.65;;;;;;;;;;4977755;28;20533;-63
2022/10/27 14:27:23;;;;;;;1.60;0.57;;;;;;;;;;4976796;28;20809;-63
2022/10/27 14:29:49;;;;;;;0.70;0.50;;;;;;;;;;4996149;28;20038;-63
2022/10/27 14:32:20;;;;;;;2.30;0.70;;;;;;;;;;4997959;28;20119;-63
2022/10/27 14:34:46;;;;;;;0.57;0.52;;;;;;;;;;4979042;28;20464;-63
2022/10/27 14:37:20;;;;;;;0.80;0.60;;;;;;;;;;4998541;28;20405;-64
2022/10/27 14:39:47;;;;;;;0.70;0.70;;;;;;;;;;4984288;28;20050;-64
2022/10/27 14:42:18;;;;;;;1.58;0.73;;;;;;;;;;4996519;28;20485;-64
2022/10/27 14:44:44;;;;;;;1.17;0.60;;;;;;;;;;4997973;28;20104;-63
2022/10/27 14:47:12;;;;;;;1.95;0.70;;;;;;;;;;4996598;28;20536;-64
2022/10/27 14:49:48;;;;;;;1.38;0.52;;;;;;;;;;4999039;28;20092;-64
2022/10/27 14:52:33;;;;;;;0.60;0.57;;;;;;;;;;4994938;28;20046;-64
2022/10/27 14:54:59;;;;;;;0.77;0.50;;;;;;;;;;4994599;28;20037;-64